sensor_id;sensor_type;location;lat;lon;timestamp;pressure;altitude;pressure_sealevel;temperature;humidity
81897;BME280;71360;43.506;1.500;2023-08-12T00:00:55;99285.28;;;24.22;50.34
81897;BME280;71360;43.506;1.500;2023-08-12T00:03:21;99283.03;;;24.18;50.94
81897;BME280;71360;43.506;1.500;2023-08-12T00:05:47;99278.75;;;24.15;51.07
81897;BME280;71360;43.506;1.500;2023-08-12T00:08:12;99282.81;;;24.11;50.96
81897;BME280;71360;43.506;1.500;2023-08-12T00:10:37;99278.56;;;24.08;50.60
81897;BME280;71360;43.506;1.500;2023-08-12T00:13:03;99277.03;;;24.06;50.78
81897;BME280;71360;43.506;1.500;2023-08-12T00:15:29;99281.09;;;24.02;50.55
81897;BME280;71360;43.506;1.500;2023-08-12T00:17:54;99284.13;;;23.99;50.64
81897;BME280;71360;43.506;1.500;2023-08-12T00:20:20;99279.19;;;23.94;50.93
81897;BME280;71360;43.506;1.500;2023-08-12T00:22:46;99272.50;;;23.88;50.95
81897;BME280;71360;43.506;1.500;2023-08-12T00:25:11;99267.66;;;23.82;50.70
81897;BME280;71360;43.506;1.500;2023-08-12T00:27:37;99274.63;;;23.76;50.94
81897;BME280;71360;43.506;1.500;2023-08-12T00:30:04;99276.81;;;23.73;50.60
81897;BME280;71360;43.506;1.500;2023-08-12T00:32:29;99269.28;;;23.67;50.03
81897;BME280;71360;43.506;1.500;2023-08-12T00:34:56;99270.78;;;23.61;50.11
81897;BME280;71360;43.506;1.500;2023-08-12T00:37:22;99270.41;;;23.56;50.74
81897;BME280;71360;43.506;1.500;2023-08-12T00:39:48;99272.06;;;23.49;51.25
81897;BME280;71360;43.506;1.500;2023-08-12T00:42:13;99270.97;;;23.41;51.78
81897;BME280;71360;43.506;1.500;2023-08-12T00:44:39;99267.72;;;23.38;52.16
81897;BME280;71360;43.506;1.500;2023-08-12T00:47:04;99255.56;;;23.32;52.63
81897;BME280;71360;43.506;1.500;2023-08-12T00:49:31;99259.50;;;23.30;52.57
81897;BME280;71360;43.506;1.500;2023-08-12T00:51:58;99253.66;;;23.24;52.96
81897;BME280;71360;43.506;1.500;2023-08-12T00:54:25;99257.56;;;23.22;52.87
81897;BME280;71360;43.506;1.500;2023-08-12T00:56:52;99258.88;;;23.18;52.68
81897;BME280;71360;43.506;1.500;2023-08-12T00:59:19;99259.22;;;23.15;52.79
81897;BME280;71360;43.506;1.500;2023-08-12T01:01:46;99254.34;;;23.08;53.11
81897;BME280;71360;43.506;1.500;2023-08-12T01:04:12;99259.25;;;23.05;52.89
81897;BME280;71360;43.506;1.500;2023-08-12T01:06:38;99253.94;;;23.03;53.24
81897;BME280;71360;43.506;1.500;2023-08-12T01:09:05;99248.13;;;22.98;53.45
81897;BME280;71360;43.506;1.500;2023-08-12T01:17:09;99247.97;;;22.82;54.63
81897;BME280;71360;43.506;1.500;2023-08-12T01:19:39;99242.16;;;22.76;55.13
81897;BME280;71360;43.506;1.500;2023-08-12T01:22:08;99236.00;;;22.74;54.87
81897;BME280;71360;43.506;1.500;2023-08-12T01:24:38;99236.16;;;22.73;54.65
81897;BME280;71360;43.506;1.500;2023-08-12T01:27:05;99239.03;;;22.71;54.97
81897;BME280;71360;43.506;1.500;2023-08-12T01:29:35;99228.44;;;22.68;54.84
81897;BME280;71360;43.506;1.500;2023-08-12T01:32:10;99228.75;;;22.65;55.10
81897;BME280;71360;43.506;1.500;2023-08-12T01:34:43;99220.75;;;22.64;54.83
81897;BME280;71360;43.506;1.500;2023-08-12T01:37:11;99224.47;;;22.63;54.70
81897;BME280;71360;43.506;1.500;2023-08-12T01:39:39;99210.00;;;22.62;54.65
81897;BME280;71360;43.506;1.500;2023-08-12T01:42:06;99219.03;;;22.63;55.26
81897;BME280;71360;43.506;1.500;2023-08-12T01:44:32;99228.22;;;22.62;55.43
81897;BME280;71360;43.506;1.500;2023-08-12T01:46:59;99226.66;;;22.59;55.60
81897;BME280;71360;43.506;1.500;2023-08-12T01:49:25;99226.78;;;22.57;56.12
81897;BME280;71360;43.506;1.500;2023-08-12T01:51:50;99226.94;;;22.56;55.94
81897;BME280;71360;43.506;1.500;2023-08-12T01:54:15;99226.13;;;22.55;56.11
81897;BME280;71360;43.506;1.500;2023-08-12T01:56:41;99231.00;;;22.52;56.15
81897;BME280;71360;43.506;1.500;2023-08-12T01:59:06;99232.16;;;22.49;56.12
81897;BME280;71360;43.506;1.500;2023-08-12T02:01:32;99232.63;;;22.45;55.93
81897;BME280;71360;43.506;1.500;2023-08-12T02:03:57;99232.97;;;22.41;55.92
81897;BME280;71360;43.506;1.500;2023-08-12T02:06:23;99227.09;;;22.36;56.41
81897;BME280;71360;43.506;1.500;2023-08-12T02:08:48;99219.50;;;22.30;56.68
81897;BME280;71360;43.506;1.500;2023-08-12T02:11:14;99215.38;;;22.26;57.44
81897;BME280;71360;43.506;1.500;2023-08-12T02:13:39;99209.41;;;22.22;57.22
81897;BME280;71360;43.506;1.500;2023-08-12T02:16:04;99216.00;;;22.20;57.30
81897;BME280;71360;43.506;1.500;2023-08-12T02:18:30;99220.59;;;22.19;57.03
81897;BME280;71360;43.506;1.500;2023-08-12T02:20:55;99227.06;;;22.18;57.01
81897;BME280;71360;43.506;1.500;2023-08-12T02:23:21;99226.19;;;22.18;57.13
81897;BME280;71360;43.506;1.500;2023-08-12T02:25:46;99223.09;;;22.13;57.17
81897;BME280;71360;43.506;1.500;2023-08-12T02:28:12;99228.97;;;22.08;57.16
81897;BME280;71360;43.506;1.500;2023-08-12T02:30:37;99226.72;;;22.03;57.28
81897;BME280;71360;43.506;1.500;2023-08-12T02:33:03;99225.16;;;22.01;57.25
81897;BME280;71360;43.506;1.500;2023-08-12T02:35:28;99222.88;;;21.96;57.20
81897;BME280;71360;43.506;1.500;2023-08-12T02:37:54;99220.44;;;21.93;57.02
81897;BME280;71360;43.506;1.500;2023-08-12T02:40:19;99221.75;;;21.89;57.13
81897;BME280;71360;43.506;1.500;2023-08-12T02:42:45;99220.19;;;21.86;56.90
81897;BME280;71360;43.506;1.500;2023-08-12T02:45:10;99216.94;;;21.83;56.91
81897;BME280;71360;43.506;1.500;2023-08-12T02:47:35;99211.78;;;21.80;57.13
81897;BME280;71360;43.506;1.500;2023-08-12T02:50:01;99212.81;;;21.79;57.00
81897;BME280;71360;43.506;1.500;2023-08-12T02:52:27;99226.69;;;21.75;57.17
81897;BME280;71360;43.506;1.500;2023-08-12T02:54:53;99219.69;;;21.73;57.42
81897;BME280;71360;43.506;1.500;2023-08-12T02:57:20;99223.44;;;21.72;57.27
81897;BME280;71360;43.506;1.500;2023-08-12T02:59:45;99216.28;;;21.71;57.49
81897;BME280;71360;43.506;1.500;2023-08-12T03:02:11;99214.56;;;21.70;58.59
81897;BME280;71360;43.506;1.500;2023-08-12T03:04:36;99212.69;;;21.70;58.57
81897;BME280;71360;43.506;1.500;2023-08-12T03:07:01;99215.38;;;21.70;58.36
81897;BME280;71360;43.506;1.500;2023-08-12T03:09:28;99211.69;;;21.71;58.35
81897;BME280;71360;43.506;1.500;2023-08-12T03:11:53;99211.81;;;21.70;58.51
81897;BME280;71360;43.506;1.500;2023-08-12T03:14:19;99215.53;;;21.69;58.52
81897;BME280;71360;43.506;1.500;2023-08-12T03:16:44;99218.41;;;21.67;58.33
81897;BME280;71360;43.506;1.500;2023-08-12T03:19:09;99219.41;;;21.66;58.72
81897;BME280;71360;43.506;1.500;2023-08-12T03:21:35;99216.84;;;21.65;58.74
81897;BME280;71360;43.506;1.500;2023-08-12T03:24:00;99218.00;;;21.62;59.06
81897;BME280;71360;43.506;1.500;2023-08-12T03:26:26;99209.16;;;21.60;59.08
81897;BME280;71360;43.506;1.500;2023-08-12T03:28:51;99204.03;;;21.57;59.00
81897;BME280;71360;43.506;1.500;2023-08-12T03:31:17;99206.03;;;21.55;59.46
81897;BME280;71360;43.506;1.500;2023-08-12T03:33:42;99216.28;;;21.51;59.35
81897;BME280;71360;43.506;1.500;2023-08-12T03:36:08;99219.16;;;21.50;60.08
81897;BME280;71360;43.506;1.500;2023-08-12T03:38:34;99219.31;;;21.48;60.55
81897;BME280;71360;43.506;1.500;2023-08-12T03:41:01;99214.03;;;21.47;60.45
81897;BME280;71360;43.506;1.500;2023-08-12T03:43:27;99223.19;;;21.46;60.27
81897;BME280;71360;43.506;1.500;2023-08-12T03:45:53;99228.78;;;21.44;60.28
81897;BME280;71360;43.506;1.500;2023-08-12T03:48:18;99214.50;;;21.42;60.75
81897;BME280;71360;43.506;1.500;2023-08-12T03:50:43;99220.03;;;21.40;60.34
81897;BME280;71360;43.506;1.500;2023-08-12T03:53:11;99217.63;;;21.37;60.89
81897;BME280;71360;43.506;1.500;2023-08-12T03:55:37;99211.78;;;21.32;60.90
81897;BME280;71360;43.506;1.500;2023-08-12T03:58:03;99213.06;;;21.28;61.51
81897;BME280;71360;43.506;1.500;2023-08-12T04:00:28;99217.25;;;21.22;61.37
81897;BME280;71360;43.506;1.500;2023-08-12T04:02:54;99213.25;;;21.17;61.29
81897;BME280;71360;43.506;1.500;2023-08-12T04:05:20;99219.97;;;21.13;61.17
81897;BME280;71360;43.506;1.500;2023-08-12T04:07:45;99221.28;;;21.08;61.67
81897;BME280;71360;43.506;1.500;2023-08-12T04:10:11;99222.00;;;21.01;62.39
81897;BME280;71360;43.506;1.500;2023-08-12T04:12:36;99225.31;;;20.95;62.65
81897;BME280;71360;43.506;1.500;2023-08-12T04:15:02;99225.72;;;20.90;62.61
81897;BME280;71360;43.506;1.500;2023-08-12T04:17:30;99229.72;;;20.86;62.42
81897;BME280;71360;43.506;1.500;2023-08-12T04:19:55;99230.03;;;20.83;62.54
81897;BME280;71360;43.506;1.500;2023-08-12T04:22:21;99240.47;;;20.78;62.80
81897;BME280;71360;43.506;1.500;2023-08-12T04:24:46;99240.75;;;20.74;63.17
81897;BME280;71360;43.506;1.500;2023-08-12T04:27:12;99233.91;;;20.70;63.90
81897;BME280;71360;43.506;1.500;2023-08-12T04:29:37;99245.16;;;20.66;63.83
81897;BME280;71360;43.506;1.500;2023-08-12T04:32:03;99252.72;;;20.62;63.95
81897;BME280;71360;43.506;1.500;2023-08-12T04:34:28;99248.56;;;20.58;63.86
81897;BME280;71360;43.506;1.500;2023-08-12T04:36:53;99247.84;;;20.56;63.83
81897;BME280;71360;43.506;1.500;2023-08-12T04:39:19;99248.00;;;20.54;64.02
81897;BME280;71360;43.506;1.500;2023-08-12T04:41:44;99253.72;;;20.51;63.87
81897;BME280;71360;43.506;1.500;2023-08-12T04:44:10;99251.44;;;20.47;63.93
81897;BME280;71360;43.506;1.500;2023-08-12T04:46:35;99251.84;;;20.42;63.98
81897;BME280;71360;43.506;1.500;2023-08-12T04:49:01;99247.53;;;20.39;64.12
81897;BME280;71360;43.506;1.500;2023-08-12T04:51:26;99257.09;;;20.34;63.79
81897;BME280;71360;43.506;1.500;2023-08-12T04:53:52;99260.81;;;20.33;64.17
81897;BME280;71360;43.506;1.500;2023-08-12T04:56:17;99265.53;;;20.31;63.72
81897;BME280;71360;43.506;1.500;2023-08-12T04:58:43;99262.97;;;20.29;64.01
81897;BME280;71360;43.506;1.500;2023-08-12T05:01:08;99261.25;;;20.28;64.20
81897;BME280;71360;43.506;1.500;2023-08-12T05:03:34;99263.22;;;20.26;63.97
81897;BME280;71360;43.506;1.500;2023-08-12T05:05:59;99261.53;;;20.25;63.91
81897;BME280;71360;43.506;1.500;2023-08-12T05:08:25;99263.22;;;20.26;63.96
81897;BME280;71360;43.506;1.500;2023-08-12T05:10:50;99264.94;;;20.27;63.94
81897;BME280;71360;43.506;1.500;2023-08-12T05:13:16;99267.50;;;20.29;64.21
81897;BME280;71360;43.506;1.500;2023-08-12T05:15:45;99264.66;;;20.30;64.50
81897;BME280;71360;43.506;1.500;2023-08-12T05:18:10;99276.41;;;20.31;64.33
81897;BME280;71360;43.506;1.500;2023-08-12T05:20:36;99272.53;;;20.33;64.34
81897;BME280;71360;43.506;1.500;2023-08-12T05:23:01;99275.81;;;20.37;64.31
81897;BME280;71360;43.506;1.500;2023-08-12T05:25:26;99275.41;;;20.41;64.64
81897;BME280;71360;43.506;1.500;2023-08-12T05:27:52;99278.69;;;20.45;64.48
81897;BME280;71360;43.506;1.500;2023-08-12T05:30:17;99282.84;;;20.49;64.44
81897;BME280;71360;43.506;1.500;2023-08-12T05:32:43;99291.44;;;20.54;64.99
81897;BME280;71360;43.506;1.500;2023-08-12T05:35:08;99292.00;;;20.58;64.72
81897;BME280;71360;43.506;1.500;2023-08-12T05:37:34;99288.72;;;20.64;64.46
81897;BME280;71360;43.506;1.500;2023-08-12T05:39:59;99287.47;;;20.68;64.42
81897;BME280;71360;43.506;1.500;2023-08-12T05:42:25;99296.06;;;20.73;64.59
81897;BME280;71360;43.506;1.500;2023-08-12T05:44:50;99299.06;;;20.80;64.83
81897;BME280;71360;43.506;1.500;2023-08-12T05:47:16;99304.78;;;20.87;65.30
81897;BME280;71360;43.506;1.500;2023-08-12T05:49:41;99305.94;;;20.94;65.22
81897;BME280;71360;43.506;1.500;2023-08-12T05:52:07;99307.66;;;21.05;64.79
81897;BME280;71360;43.506;1.500;2023-08-12T05:54:33;99303.09;;;21.15;64.75
81897;BME280;71360;43.506;1.500;2023-08-12T05:56:59;99297.78;;;21.23;65.11
81897;BME280;71360;43.506;1.500;2023-08-12T05:59:24;99298.50;;;21.35;65.00
81897;BME280;71360;43.506;1.500;2023-08-12T06:01:49;99300.47;;;21.43;65.23
81897;BME280;71360;43.506;1.500;2023-08-12T06:04:15;99299.47;;;21.54;65.09
81897;BME280;71360;43.506;1.500;2023-08-12T06:06:41;99318.34;;;21.65;64.81
81897;BME280;71360;43.506;1.500;2023-08-12T06:09:07;99317.31;;;21.76;64.86
81897;BME280;71360;43.506;1.500;2023-08-12T06:11:32;99309.81;;;21.88;65.29
81897;BME280;71360;43.506;1.500;2023-08-12T06:13:58;99307.09;;;21.98;64.55
81897;BME280;71360;43.506;1.500;2023-08-12T06:16:23;99314.31;;;22.07;64.63
81897;BME280;71360;43.506;1.500;2023-08-12T06:18:48;99311.59;;;22.17;64.32
81897;BME280;71360;43.506;1.500;2023-08-12T06:21:14;99305.22;;;22.26;64.40
81897;BME280;71360;43.506;1.500;2023-08-12T06:23:39;99313.06;;;22.39;64.24
81897;BME280;71360;43.506;1.500;2023-08-12T06:26:05;99309.28;;;22.50;64.10
81897;BME280;71360;43.506;1.500;2023-08-12T06:28:30;99315.50;;;22.60;63.78
81897;BME280;71360;43.506;1.500;2023-08-12T06:30:56;99314.59;;;22.69;63.94
81897;BME280;71360;43.506;1.500;2023-08-12T06:33:21;99314.69;;;22.77;63.60
81897;BME280;71360;43.506;1.500;2023-08-12T06:35:47;99322.09;;;22.85;63.65
81897;BME280;71360;43.506;1.500;2023-08-12T06:38:12;99316.16;;;22.90;63.27
81897;BME280;71360;43.506;1.500;2023-08-12T06:40:38;99315.88;;;22.93;63.35
81897;BME280;71360;43.506;1.500;2023-08-12T06:43:04;99321.00;;;22.96;63.55
81897;BME280;71360;43.506;1.500;2023-08-12T06:45:29;99320.84;;;22.98;63.14
81897;BME280;71360;43.506;1.500;2023-08-12T06:47:55;99319.53;;;23.02;63.36
81897;BME280;71360;43.506;1.500;2023-08-12T06:50:21;99324.66;;;23.05;62.90
81897;BME280;71360;43.506;1.500;2023-08-12T06:52:46;99321.63;;;23.08;63.34
81897;BME280;71360;43.506;1.500;2023-08-12T06:55:12;99326.66;;;23.13;62.70
81897;BME280;71360;43.506;1.500;2023-08-12T06:57:37;99318.16;;;23.16;63.29
81897;BME280;71360;43.506;1.500;2023-08-12T07:00:06;99320.59;;;23.19;63.22
81897;BME280;71360;43.506;1.500;2023-08-12T07:02:32;99321.97;;;23.23;63.25
81897;BME280;71360;43.506;1.500;2023-08-12T07:04:57;99329.00;;;23.25;62.65
81897;BME280;71360;43.506;1.500;2023-08-12T07:07:23;99330.38;;;23.30;62.66
81897;BME280;71360;43.506;1.500;2023-08-12T07:09:49;99323.72;;;23.32;62.97
81897;BME280;71360;43.506;1.500;2023-08-12T07:12:14;99327.19;;;23.34;62.67
81897;BME280;71360;43.506;1.500;2023-08-12T07:14:40;99324.13;;;23.37;62.66
81897;BME280;71360;43.506;1.500;2023-08-12T07:17:05;99325.34;;;23.43;62.76
81897;BME280;71360;43.506;1.500;2023-08-12T07:19:31;99321.16;;;23.49;62.93
81897;BME280;71360;43.506;1.500;2023-08-12T07:21:57;99318.78;;;23.54;63.08
81897;BME280;71360;43.506;1.500;2023-08-12T07:24:22;99322.63;;;23.61;62.84
81897;BME280;71360;43.506;1.500;2023-08-12T07:26:48;99330.16;;;23.67;62.18
81897;BME280;71360;43.506;1.500;2023-08-12T07:29:13;99334.09;;;23.73;62.52
81897;BME280;71360;43.506;1.500;2023-08-12T07:31:39;99336.19;;;23.79;62.48
81897;BME280;71360;43.506;1.500;2023-08-12T07:34:04;99324.78;;;23.84;62.30
81897;BME280;71360;43.506;1.500;2023-08-12T07:36:29;99324.50;;;23.87;62.06
81897;BME280;71360;43.506;1.500;2023-08-12T07:38:55;99321.28;;;23.91;62.00
81897;BME280;71360;43.506;1.500;2023-08-12T07:41:21;99320.78;;;23.96;62.00
81897;BME280;71360;43.506;1.500;2023-08-12T07:43:46;99321.16;;;24.01;62.30
81897;BME280;71360;43.506;1.500;2023-08-12T07:46:12;99320.72;;;24.06;62.18
81897;BME280;71360;43.506;1.500;2023-08-12T07:48:37;99320.91;;;24.13;61.59
81897;BME280;71360;43.506;1.500;2023-08-12T07:51:03;99325.53;;;24.20;62.31
81897;BME280;71360;43.506;1.500;2023-08-12T07:53:28;99325.75;;;24.27;62.00
81897;BME280;71360;43.506;1.500;2023-08-12T07:55:54;99331.22;;;24.35;61.36
81897;BME280;71360;43.506;1.500;2023-08-12T07:58:19;99334.69;;;24.46;61.47
81897;BME280;71360;43.506;1.500;2023-08-12T08:00:45;99336.44;;;24.55;61.30
81897;BME280;71360;43.506;1.500;2023-08-12T08:03:10;99328.81;;;24.67;61.15
81897;BME280;71360;43.506;1.500;2023-08-12T08:05:40;99331.25;;;24.86;61.53
81897;BME280;71360;43.506;1.500;2023-08-12T08:08:06;99326.00;;;25.09;60.72
81897;BME280;71360;43.506;1.500;2023-08-12T08:10:31;99332.88;;;25.38;60.23
81897;BME280;71360;43.506;1.500;2023-08-12T08:12:57;99316.78;;;25.68;59.60
81897;BME280;71360;43.506;1.500;2023-08-12T08:15:22;99311.75;;;25.97;58.88
81897;BME280;71360;43.506;1.500;2023-08-12T08:17:48;99319.41;;;26.18;59.13
81897;BME280;71360;43.506;1.500;2023-08-12T08:20:13;99319.53;;;26.33;58.12
81897;BME280;71360;43.506;1.500;2023-08-12T08:22:38;99332.84;;;26.44;57.72
81897;BME280;71360;43.506;1.500;2023-08-12T08:25:05;99336.03;;;26.56;57.26
81897;BME280;71360;43.506;1.500;2023-08-12T08:27:30;99323.34;;;26.63;57.39
81897;BME280;71360;43.506;1.500;2023-08-12T08:29:57;99317.50;;;26.66;56.55
81897;BME280;71360;43.506;1.500;2023-08-12T08:32:22;99338.56;;;26.66;56.99
81897;BME280;71360;43.506;1.500;2023-08-12T08:34:47;99333.94;;;26.66;56.56
81897;BME280;71360;43.506;1.500;2023-08-12T08:37:13;99333.41;;;26.71;56.52
81897;BME280;71360;43.506;1.500;2023-08-12T08:39:38;99340.56;;;26.80;56.76
81897;BME280;71360;43.506;1.500;2023-08-12T08:42:05;99339.50;;;26.89;56.03
81897;BME280;71360;43.506;1.500;2023-08-12T08:44:33;99326.41;;;27.00;56.12
81897;BME280;71360;43.506;1.500;2023-08-12T08:46:58;99335.91;;;27.12;55.82
81897;BME280;71360;43.506;1.500;2023-08-12T08:49:25;99327.44;;;27.22;55.92
81897;BME280;71360;43.506;1.500;2023-08-12T08:51:51;99322.53;;;27.32;55.58
81897;BME280;71360;43.506;1.500;2023-08-12T08:54:18;99319.09;;;27.38;54.89
81897;BME280;71360;43.506;1.500;2023-08-12T08:56:44;99320.63;;;27.41;55.13
81897;BME280;71360;43.506;1.500;2023-08-12T08:59:10;99323.69;;;27.46;54.37
81897;BME280;71360;43.506;1.500;2023-08-12T09:01:36;99320.66;;;27.56;54.76
81897;BME280;71360;43.506;1.500;2023-08-12T09:04:03;99312.16;;;27.66;54.04
81897;BME280;71360;43.506;1.500;2023-08-12T09:06:30;99308.78;;;27.78;53.57
81897;BME280;71360;43.506;1.500;2023-08-12T09:08:57;99316.34;;;27.91;53.67
81897;BME280;71360;43.506;1.500;2023-08-12T09:11:23;99320.03;;;27.99;53.35
81897;BME280;71360;43.506;1.500;2023-08-12T09:13:49;99322.09;;;28.05;52.84
81897;BME280;71360;43.506;1.500;2023-08-12T09:16:15;99318.31;;;28.06;52.59
81897;BME280;71360;43.506;1.500;2023-08-12T09:18:42;99318.41;;;28.12;52.50
81897;BME280;71360;43.506;1.500;2023-08-12T09:21:09;99316.41;;;28.21;51.91
81897;BME280;71360;43.506;1.500;2023-08-12T09:23:37;99307.66;;;28.33;51.72
81897;BME280;71360;43.506;1.500;2023-08-12T09:26:12;99310.38;;;28.47;51.63
81897;BME280;71360;43.506;1.500;2023-08-12T09:28:38;99321.75;;;28.59;51.35
81897;BME280;71360;43.506;1.500;2023-08-12T09:31:03;99317.69;;;28.70;50.61
81897;BME280;71360;43.506;1.500;2023-08-12T09:33:29;99317.56;;;28.78;50.80
81897;BME280;71360;43.506;1.500;2023-08-12T09:35:54;99320.59;;;28.84;50.36
81897;BME280;71360;43.506;1.500;2023-08-12T09:38:22;99319.63;;;28.91;50.44
81897;BME280;71360;43.506;1.500;2023-08-12T09:40:47;99319.09;;;29.03;50.23
81897;BME280;71360;43.506;1.500;2023-08-12T09:43:13;99318.97;;;29.11;49.65
81897;BME280;71360;43.506;1.500;2023-08-12T09:45:38;99325.19;;;29.20;49.39
81897;BME280;71360;43.506;1.500;2023-08-12T09:48:04;99331.44;;;29.28;49.48
81897;BME280;71360;43.506;1.500;2023-08-12T09:50:31;99331.53;;;29.35;49.30
81897;BME280;71360;43.506;1.500;2023-08-12T09:52:56;99333.47;;;29.41;48.24
81897;BME280;71360;43.506;1.500;2023-08-12T09:55:24;99334.38;;;29.49;48.96
81897;BME280;71360;43.506;1.500;2023-08-12T09:57:54;99329.59;;;29.57;48.89
81897;BME280;71360;43.506;1.500;2023-08-12T10:00:23;99323.72;;;29.67;49.02
81897;BME280;71360;43.506;1.500;2023-08-12T10:02:51;99334.00;;;29.80;48.47
81897;BME280;71360;43.506;1.500;2023-08-12T10:05:31;99327.13;;;29.91;48.11
81897;BME280;71360;43.506;1.500;2023-08-12T10:07:58;99328.16;;;29.90;48.24
81897;BME280;71360;43.506;1.500;2023-08-12T10:10:24;99326.66;;;29.87;47.95
81897;BME280;71360;43.506;1.500;2023-08-12T10:12:50;99324.56;;;29.89;48.34
81897;BME280;71360;43.506;1.500;2023-08-12T10:15:16;99319.91;;;29.90;47.98
81897;BME280;71360;43.506;1.500;2023-08-12T10:17:42;99319.94;;;29.96;47.71
81897;BME280;71360;43.506;1.500;2023-08-12T10:20:11;99322.09;;;30.01;47.11
81897;BME280;71360;43.506;1.500;2023-08-12T10:22:39;99320.84;;;30.04;46.97
81897;BME280;71360;43.506;1.500;2023-08-12T10:25:07;99321.28;;;30.07;47.06
81897;BME280;71360;43.506;1.500;2023-08-12T10:27:34;99327.22;;;30.11;47.05
81897;BME280;71360;43.506;1.500;2023-08-12T10:30:02;99321.97;;;30.16;47.04
81897;BME280;71360;43.506;1.500;2023-08-12T10:32:29;99315.19;;;30.19;46.76
81897;BME280;71360;43.506;1.500;2023-08-12T10:34:56;99307.38;;;30.22;46.61
81897;BME280;71360;43.506;1.500;2023-08-12T10:37:23;99312.47;;;30.25;46.42
81897;BME280;71360;43.506;1.500;2023-08-12T10:39:49;99307.84;;;30.33;46.36
81897;BME280;71360;43.506;1.500;2023-08-12T10:42:44;99308.75;;;30.40;46.26
81897;BME280;71360;43.506;1.500;2023-08-12T10:45:15;99294.81;;;30.48;45.96
81897;BME280;71360;43.506;1.500;2023-08-12T10:47:48;99296.53;;;30.56;45.91
81897;BME280;71360;43.506;1.500;2023-08-12T10:50:18;99303.78;;;30.63;45.37
81897;BME280;71360;43.506;1.500;2023-08-12T10:52:44;99306.56;;;30.70;45.00
81897;BME280;71360;43.506;1.500;2023-08-12T10:55:24;99292.78;;;30.77;44.89
81897;BME280;71360;43.506;1.500;2023-08-12T10:57:52;99295.78;;;30.82;44.92
81897;BME280;71360;43.506;1.500;2023-08-12T11:00:23;99299.38;;;30.89;44.60
81897;BME280;71360;43.506;1.500;2023-08-12T11:02:50;99294.09;;;30.94;44.02
81897;BME280;71360;43.506;1.500;2023-08-12T11:05:16;99289.00;;;30.98;44.13
81897;BME280;71360;43.506;1.500;2023-08-12T11:07:58;99278.66;;;31.07;43.81
81897;BME280;71360;43.506;1.500;2023-08-12T11:10:27;99282.91;;;31.16;43.60
81897;BME280;71360;43.506;1.500;2023-08-12T11:12:56;99279.06;;;31.24;43.83
81897;BME280;71360;43.506;1.500;2023-08-12T11:15:45;99282.94;;;31.29;43.91
81897;BME280;71360;43.506;1.500;2023-08-12T11:18:17;99274.66;;;31.36;43.55
81897;BME280;71360;43.506;1.500;2023-08-12T11:20:43;99272.50;;;31.45;43.05
81897;BME280;71360;43.506;1.500;2023-08-12T11:23:09;99266.56;;;31.55;42.40
81897;BME280;71360;43.506;1.500;2023-08-12T11:25:38;99269.13;;;31.63;42.52
81897;BME280;71360;43.506;1.500;2023-08-12T11:28:05;99267.41;;;31.69;42.83
81897;BME280;71360;43.506;1.500;2023-08-12T11:30:31;99260.81;;;31.76;42.74
81897;BME280;71360;43.506;1.500;2023-08-12T11:32:58;99266.13;;;31.85;42.47
81897;BME280;71360;43.506;1.500;2023-08-12T11:35:24;99265.66;;;31.94;42.07
81897;BME280;71360;43.506;1.500;2023-08-12T11:37:52;99257.56;;;32.06;41.97
81897;BME280;71360;43.506;1.500;2023-08-12T11:40:19;99259.66;;;32.18;40.94
81897;BME280;71360;43.506;1.500;2023-08-12T11:42:46;99256.66;;;32.26;40.77
81897;BME280;71360;43.506;1.500;2023-08-12T11:45:12;99259.63;;;32.31;40.38
81897;BME280;71360;43.506;1.500;2023-08-12T11:47:40;99253.44;;;32.36;40.12
81897;BME280;71360;43.506;1.500;2023-08-12T11:50:07;99263.22;;;32.38;39.90
81897;BME280;71360;43.506;1.500;2023-08-12T11:52:34;99257.25;;;32.41;40.06
81897;BME280;71360;43.506;1.500;2023-08-12T11:55:00;99252.09;;;32.45;40.03
81897;BME280;71360;43.506;1.500;2023-08-12T11:57:26;99250.63;;;32.49;40.23
81897;BME280;71360;43.506;1.500;2023-08-12T12:00:03;99253.56;;;32.54;39.97
81897;BME280;71360;43.506;1.500;2023-08-12T12:02:38;99249.28;;;32.58;40.30
81897;BME280;71360;43.506;1.500;2023-08-12T12:05:11;99250.50;;;32.69;40.00
81897;BME280;71360;43.506;1.500;2023-08-12T12:07:36;99254.72;;;32.78;39.48
81897;BME280;71360;43.506;1.500;2023-08-12T12:10:03;99250.44;;;32.82;39.46
81897;BME280;71360;43.506;1.500;2023-08-12T12:12:28;99251.09;;;32.85;39.31
81897;BME280;71360;43.506;1.500;2023-08-12T12:14:55;99259.72;;;32.95;39.44
81897;BME280;71360;43.506;1.500;2023-08-12T12:17:22;99249.84;;;33.06;38.57
81897;BME280;71360;43.506;1.500;2023-08-12T12:19:52;99243.75;;;33.22;39.03
81897;BME280;71360;43.506;1.500;2023-08-12T12:22:18;99244.91;;;33.40;38.43
81897;BME280;71360;43.506;1.500;2023-08-12T12:24:44;99242.19;;;33.58;38.60
81897;BME280;71360;43.506;1.500;2023-08-12T12:27:14;99250.16;;;33.73;37.78
81897;BME280;71360;43.506;1.500;2023-08-12T12:29:40;99238.34;;;33.85;37.36
81897;BME280;71360;43.506;1.500;2023-08-12T12:32:06;99240.56;;;33.94;37.31
81897;BME280;71360;43.506;1.500;2023-08-12T12:34:31;99240.31;;;33.96;36.48
81897;BME280;71360;43.506;1.500;2023-08-12T12:36:56;99239.25;;;33.97;36.41
81897;BME280;71360;43.506;1.500;2023-08-12T12:39:22;99229.94;;;33.91;36.00
81897;BME280;71360;43.506;1.500;2023-08-12T12:41:48;99238.72;;;33.88;35.71
81897;BME280;71360;43.506;1.500;2023-08-12T12:44:14;99226.09;;;33.92;36.27
81897;BME280;71360;43.506;1.500;2023-08-12T12:46:39;99223.84;;;34.01;35.53
81897;BME280;71360;43.506;1.500;2023-08-12T12:49:05;99231.03;;;34.09;35.49
81897;BME280;71360;43.506;1.500;2023-08-12T12:51:30;99231.03;;;34.09;35.04
81897;BME280;71360;43.506;1.500;2023-08-12T12:53:56;99226.69;;;34.13;35.45
81897;BME280;71360;43.506;1.500;2023-08-12T12:56:22;99220.00;;;34.21;35.28
81897;BME280;71360;43.506;1.500;2023-08-12T12:58:47;99220.94;;;34.33;35.32
81897;BME280;71360;43.506;1.500;2023-08-12T13:01:13;99219.06;;;34.45;35.21